Eckerman, Michigan
Current Conditions -  °F | °C
As of 11:53 PM on Saturday 22 Nov 2014 (Local Time) from KERY Reporting Station
Haze Haze  
Wind Chill: 26°   Ceiling: 1400
Heat Index: 34°   Visibility: 5mi
Dew Point: 32°   Wind: 10mph
Humidity: 95%   Direction: 180°S
Pressure: 29.76"   Gusts: NA
Location:  46.37°N, 85.04°W
Report Text: KERY 230453Z AUTO 18009KT 5SM BR SCT007 OVC014 01/00 A2976 RMK AO2 T00090002
Loading
Personal Weather Stations






























Interactive Weather Map New forecast layout! Learn more

10-Day Weather Forecast

Advertisements
Track Severe Weather on mobile